Terminal Aerodrome Forecast
Issued by NWS Cleveland, OH

Home | Current Version | Previous Version | Text Only | Print | Product List | Glossary On
Versions: 1 2 3 4 5 6 7 8 9 10 11 12 13 14
107
FTUS41 KCLE 250117 AAA
TAFCAK
TAF AMD
KCAK 250117Z 2501/2524 19010KT P6SM BKN040 OVC100
      TEMPO 2504/2507 3SM -TSRA OVC025CB
     FM250700 22006KT P6SM BKN035 BKN100
     FM251000 22006KT 4SM BR SCT015
     FM251300 22010KT P6SM BKN015
     FM251600 22010G20KT P6SM BKN040
     FM252100 24010G30KT 3SM TSRA OVC025CB=

USA.gov is the U.S. government's official web portal to all federal, state and local government web resources and services.